Estestar — 3ECR8 — position and weather

sailwx.info

Track history (hours):
 
Tides and Currents Weather Stations Pressure Air Temp Water Temp Dewpoint Dewpoint Depression Visibility Wind Speed Wind Dir Waves Ship Positions

Estestar

Last reported at 2016-Jul-01 23:33 UTC. Time now 2016-Jul-02 00:27 UTC.
Position N 43°02' E 015°15'.

Length 133 m; draft 7.6 m.

Type: Cargo ship. MMSI: 371448000.

Date/timePositionNaut miles runAvg speedWind from/ knotsBaromVisibWave heightAir tempDewpointWater temp
2016-Jul-01 23:33N 43°02' E 015°15'27910.3
2016-Jun-30 20:33N 39°31' E 019°18'1110.4
2016-Jun-30 19:27N 39°21' E 019°25'1310.3
2016-Jun-30 18:12N 39°10' E 019°33'710.3
2016-Jun-30 17:33N 39°04' E 019°37'1010.1
2016-Jun-30 16:33N 38°55' E 019°43'1010.1
2016-Jun-30 15:33N 38°46' E 019°49'1010.1
2016-Jun-30 14:33N 38°37' E 019°55'1010.1
2016-Jun-30 13:33N 38°28' E 020°01'1010.1
2016-Jun-30 12:33N 38°19' E 020°07'12 9.9
2016-Jun-30 11:22N 38°09' E 020°15'13 9.8
2016-Jun-30 10:06N 37°59' E 020°24'5 9.7
2016-Jun-30 09:33N 37°55' E 020°28'152 7.6
2016-Jun-29 13:28N 36°54' E 023°23'1110.2
2016-Jun-29 12:22N 37°03' E 023°31'910.7
2016-Jun-29 11:33N 37°10' E 023°39'1110.8
2016-Jun-29 10:31N 37°18' E 023°48'1411.0
2016-Jun-29 09:15N 37°28' E 023°60'2011.0
2016-Jun-29 07:25N 37°43' E 024°17'1110.9
2016-Jun-29 06:24N 37°51' E 024°27'  
2016-Jun-26 09:32N 45°33' E 030°52'1010.4
2016-Jun-26 08:33N 45°42' E 030°57'1110.5
2016-Jun-26 07:33N 45°52' E 031°01'1010.3
2016-Jun-26 06:33N 46°02' E 031°05'9 9.1
2016-Jun-26 05:33N 46°11' E 030°60'9 9.5
2016-Jun-26 04:33N 46°17' E 030°49'7 7.1
2016-Jun-26 03:33N 46°20' E 030°40'0 0.2
2016-Jun-26 02:24N 46°19' E 030°39'0 0.0
2016-Jun-26 01:33N 46°19' E 030°39'0 0.0
2016-Jun-26 00:32N 46°19' E 030°39'0 0.0
2016-Jun-25 23:33N 46°19' E 030°39'0 0.0
2016-Jun-25 22:33N 46°19' E 030°39'0 0.0
2016-Jun-25 21:33N 46°19' E 030°39'0 0.0
2016-Jun-25 20:33N 46°19' E 030°39'0 0.0
2016-Jun-25 19:33N 46°19' E 030°39'0 0.0
2016-Jun-25 18:33N 46°19' E 030°39'0 0.0
2016-Jun-25 15:24N 46°19' E 030°39'0 0.0
2016-Jun-25 13:30N 46°19' E 030°39'0 0.0
2016-Jun-25 12:04N 46°19' E 030°39'0 0.0
2016-Jun-25 11:27N 46°19' E 030°39'0 0.0
2016-Jun-25 10:17N 46°19' E 030°39'0 0.0
2016-Jun-25 09:33N 46°19' E 030°39'0 0.0
2016-Jun-25 08:26N 46°19' E 030°39'0 0.0
2016-Jun-25 07:11N 46°19' E 030°39'0 0.0
2016-Jun-24 21:32N 46°19' E 030°39'0 0.0
2016-Jun-24 18:14N 46°19' E 030°39'0 0.0
2016-Jun-24 17:09N 46°19' E 030°39'0 0.0
2016-Jun-24 16:23N 46°19' E 030°39'0 0.0
2016-Jun-24 15:32N 46°19' E 030°39'0 0.0
2016-Jun-24 14:33N 46°19' E 030°39'0 0.0
2016-Jun-24 13:33N 46°19' E 030°39'0 0.0
2016-Jun-24 12:33N 46°19' E 030°39'0 0.0
2016-Jun-24 11:33N 46°19' E 030°39'0 0.0
2016-Jun-24 10:33N 46°19' E 030°39'0 0.0
2016-Jun-24 09:33N 46°19' E 030°39'0 0.0
2016-Jun-24 08:33N 46°19' E 030°39'0 0.0
2016-Jun-24 07:33N 46°19' E 030°39'0 0.0
2016-Jun-24 04:33N 46°19' E 030°39'0 0.0
2016-Jun-24 03:33N 46°19' E 030°39'0 0.0
2016-Jun-24 02:33N 46°19' E 030°39'0 0.0
2016-Jun-24 01:33N 46°19' E 030°39'0 0.0
2016-Jun-24 00:33N 46°19' E 030°39'0 0.0
2016-Jun-23 23:33N 46°19' E 030°39'0 0.0
2016-Jun-23 22:33N 46°19' E 030°39'0 0.0
2016-Jun-23 21:33N 46°19' E 030°39'3 2.8
2016-Jun-23 20:33N 46°19' E 030°43'3 3.1
2016-Jun-23 19:33N 46°16' E 030°44'2 1.7
2016-Jun-23 18:33N 46°14' E 030°43'0 0.0
2016-Jun-23 17:33N 46°14' E 030°43'0 0.0
2016-Jun-23 16:33N 46°14' E 030°43'0 0.0
2016-Jun-23 15:33N 46°14' E 030°43'0 0.0
2016-Jun-23 14:33N 46°14' E 030°43'0 0.0
2016-Jun-23 13:33N 46°14' E 030°43'0 0.0
2016-Jun-23 12:33N 46°14' E 030°43'0 0.0
2016-Jun-23 11:33N 46°14' E 030°43'0 0.0
2016-Jun-23 10:33N 46°14' E 030°43'0 0.0
2016-Jun-23 09:33N 46°14' E 030°43'0 0.0
2016-Jun-23 08:33N 46°14' E 030°43'0 0.0
2016-Jun-23 07:33N 46°14' E 030°43'0 0.0
2016-Jun-23 05:33N 46°14' E 030°43'0 0.0
2016-Jun-23 04:33N 46°14' E 030°43'0 0.0
2016-Jun-23 03:33N 46°14' E 030°43'0 0.0
2016-Jun-23 02:33N 46°14' E 030°43'0 0.0
2016-Jun-23 01:33N 46°14' E 030°43'2 2.1
2016-Jun-23 00:33N 46°12' E 030°45'1110.6
2016-Jun-22 23:33N 46°07' E 030°58'1010.0
2016-Jun-22 22:33N 46°05' E 031°12'1111.2
2016-Jun-22 21:33N 45°55' E 031°20'1111.2
2016-Jun-22 20:33N 45°45' E 031°28'1111.3
2016-Jun-22 19:33N 45°36' E 031°36'130 9.2
2016-Jun-22 05:26N 43°35' E 032°42'910.2
2016-Jun-22 04:33N 43°32' E 032°30'  
Track history (hours):
 
Tides and Currents Weather Stations Pressure Air Temp Water Temp Dewpoint Dewpoint Depression Visibility Wind Speed Wind Dir Waves Ship Positions

Estestar

Last reported at 2016-Jul-01 23:33 UTC. Time now 2016-Jul-02 00:27 UTC.
Position N 43°02' E 015°15'.

Length 133 m; draft 7.6 m.

Type: Cargo ship. MMSI: 371448000.

Date/timePositionNaut miles runAvg speedWind from/ knotsBaromVisibWave heightAir tempDewpointWater temp
2016-Jul-01 23:33N 43°02' E 015°15'27910.3
2016-Jun-30 20:33N 39°31' E 019°18'1110.4
2016-Jun-30 19:27N 39°21' E 019°25'1310.3
2016-Jun-30 18:12N 39°10' E 019°33'710.3
2016-Jun-30 17:33N 39°04' E 019°37'1010.1
2016-Jun-30 16:33N 38°55' E 019°43'1010.1
2016-Jun-30 15:33N 38°46' E 019°49'1010.1
2016-Jun-30 14:33N 38°37' E 019°55'1010.1
2016-Jun-30 13:33N 38°28' E 020°01'1010.1
2016-Jun-30 12:33N 38°19' E 020°07'12 9.9
2016-Jun-30 11:22N 38°09' E 020°15'13 9.8
2016-Jun-30 10:06N 37°59' E 020°24'5 9.7
2016-Jun-30 09:33N 37°55' E 020°28'152 7.6
2016-Jun-29 13:28N 36°54' E 023°23'1110.2
2016-Jun-29 12:22N 37°03' E 023°31'910.7
2016-Jun-29 11:33N 37°10' E 023°39'1110.8
2016-Jun-29 10:31N 37°18' E 023°48'1411.0
2016-Jun-29 09:15N 37°28' E 023°60'2011.0
2016-Jun-29 07:25N 37°43' E 024°17'1110.9
2016-Jun-29 06:24N 37°51' E 024°27'  
2016-Jun-26 09:32N 45°33' E 030°52'1010.4
2016-Jun-26 08:33N 45°42' E 030°57'1110.5
2016-Jun-26 07:33N 45°52' E 031°01'1010.3
2016-Jun-26 06:33N 46°02' E 031°05'9 9.1
2016-Jun-26 05:33N 46°11' E 030°60'9 9.5
2016-Jun-26 04:33N 46°17' E 030°49'7 7.1
2016-Jun-26 03:33N 46°20' E 030°40'0 0.2
2016-Jun-26 02:24N 46°19' E 030°39'0 0.0
2016-Jun-26 01:33N 46°19' E 030°39'0 0.0
2016-Jun-26 00:32N 46°19' E 030°39'0 0.0
2016-Jun-25 23:33N 46°19' E 030°39'0 0.0
2016-Jun-25 22:33N 46°19' E 030°39'0 0.0
2016-Jun-25 21:33N 46°19' E 030°39'0 0.0
2016-Jun-25 20:33N 46°19' E 030°39'0 0.0
2016-Jun-25 19:33N 46°19' E 030°39'0 0.0
2016-Jun-25 18:33N 46°19' E 030°39'0 0.0
2016-Jun-25 15:24N 46°19' E 030°39'0 0.0
2016-Jun-25 13:30N 46°19' E 030°39'0 0.0
2016-Jun-25 12:04N 46°19' E 030°39'0 0.0
2016-Jun-25 11:27N 46°19' E 030°39'0 0.0
2016-Jun-25 10:17N 46°19' E 030°39'0 0.0
2016-Jun-25 09:33N 46°19' E 030°39'0 0.0
2016-Jun-25 08:26N 46°19' E 030°39'0 0.0
2016-Jun-25 07:11N 46°19' E 030°39'0 0.0
2016-Jun-24 21:32N 46°19' E 030°39'0 0.0
2016-Jun-24 18:14N 46°19' E 030°39'0 0.0
2016-Jun-24 17:09N 46°19' E 030°39'0 0.0
2016-Jun-24 16:23N 46°19' E 030°39'0 0.0
2016-Jun-24 15:32N 46°19' E 030°39'0 0.0
2016-Jun-24 14:33N 46°19' E 030°39'0 0.0
2016-Jun-24 13:33N 46°19' E 030°39'0 0.0
2016-Jun-24 12:33N 46°19' E 030°39'0 0.0
2016-Jun-24 11:33N 46°19' E 030°39'0 0.0
2016-Jun-24 10:33N 46°19' E 030°39'0 0.0
2016-Jun-24 09:33N 46°19' E 030°39'0 0.0
2016-Jun-24 08:33N 46°19' E 030°39'0 0.0
2016-Jun-24 07:33N 46°19' E 030°39'0 0.0
2016-Jun-24 04:33N 46°19' E 030°39'0 0.0
2016-Jun-24 03:33N 46°19' E 030°39'0 0.0
2016-Jun-24 02:33N 46°19' E 030°39'0 0.0
2016-Jun-24 01:33N 46°19' E 030°39'0 0.0
2016-Jun-24 00:33N 46°19' E 030°39'0 0.0
2016-Jun-23 23:33N 46°19' E 030°39'0 0.0
2016-Jun-23 22:33N 46°19' E 030°39'0 0.0
2016-Jun-23 21:33N 46°19' E 030°39'3 2.8
2016-Jun-23 20:33N 46°19' E 030°43'3 3.1
2016-Jun-23 19:33N 46°16' E 030°44'2 1.7
2016-Jun-23 18:33N 46°14' E 030°43'0 0.0
2016-Jun-23 17:33N 46°14' E 030°43'0 0.0
2016-Jun-23 16:33N 46°14' E 030°43'0 0.0
2016-Jun-23 15:33N 46°14' E 030°43'0 0.0
2016-Jun-23 14:33N 46°14' E 030°43'0 0.0
2016-Jun-23 13:33N 46°14' E 030°43'0 0.0
2016-Jun-23 12:33N 46°14' E 030°43'0 0.0
2016-Jun-23 11:33N 46°14' E 030°43'0 0.0
2016-Jun-23 10:33N 46°14' E 030°43'0 0.0
2016-Jun-23 09:33N 46°14' E 030°43'0 0.0
2016-Jun-23 08:33N 46°14' E 030°43'0 0.0
2016-Jun-23 07:33N 46°14' E 030°43'0 0.0
2016-Jun-23 05:33N 46°14' E 030°43'0 0.0
2016-Jun-23 04:33N 46°14' E 030°43'0 0.0
2016-Jun-23 03:33N 46°14' E 030°43'0 0.0
2016-Jun-23 02:33N 46°14' E 030°43'0 0.0
2016-Jun-23 01:33N 46°14' E 030°43'2 2.1
2016-Jun-23 00:33N 46°12' E 030°45'1110.6
2016-Jun-22 23:33N 46°07' E 030°58'1010.0
2016-Jun-22 22:33N 46°05' E 031°12'1111.2
2016-Jun-22 21:33N 45°55' E 031°20'1111.2
2016-Jun-22 20:33N 45°45' E 031°28'1111.3
2016-Jun-22 19:33N 45°36' E 031°36'130 9.2
2016-Jun-22 05:26N 43°35' E 032°42'910.2
2016-Jun-22 04:33N 43°32' E 032°30'  

Dump ship's entire track history